sensor_id;sensor_type;location;lat;lon;timestamp;pressure;altitude;pressure_sealevel;temperature;humidity
11710;BME280;5911;51.036;6.972;2023-02-28T00:01:28;102060.19;;;3.32;74.38
11710;BME280;5911;51.036;6.972;2023-02-28T00:03:58;102105.41;;;3.62;74.12
11710;BME280;5911;51.036;6.972;2023-02-28T00:06:26;102101.91;;;3.63;74.48
11710;BME280;5911;51.036;6.972;2023-02-28T00:08:54;102107.88;;;3.67;73.76
11710;BME280;5911;51.036;6.972;2023-02-28T00:11:25;102107.97;;;3.64;74.35
11710;BME280;5911;51.036;6.972;2023-02-28T00:13:53;102107.13;;;3.63;74.22
11710;BME280;5911;51.036;6.972;2023-02-28T00:16:23;102106.28;;;3.63;74.26
11710;BME280;5911;51.036;6.972;2023-02-28T00:18:51;102108.03;;;3.62;74.32
11710;BME280;5911;51.036;6.972;2023-02-28T00:21:20;102041.25;;;3.26;75.00
11710;BME280;5911;51.036;6.972;2023-02-28T00:23:48;102105.38;;;3.64;75.75
11710;BME280;5911;51.036;6.972;2023-02-28T00:26:16;102104.47;;;3.65;73.36
11710;BME280;5911;51.036;6.972;2023-02-28T00:28:48;102100.28;;;3.59;72.74
11710;BME280;5911;51.036;6.972;2023-02-28T00:31:15;102089.44;;;3.43;73.77
11710;BME280;5911;51.036;6.972;2023-02-28T00:33:43;102109.03;;;3.57;73.98
11710;BME280;5911;51.036;6.972;2023-02-28T00:36:13;102069.63;;;3.36;73.83
11710;BME280;5911;51.036;6.972;2023-02-28T00:38:42;102075.78;;;3.35;73.95
11710;BME280;5911;51.036;6.972;2023-02-28T00:41:10;102108.31;;;3.51;73.34
11710;BME280;5911;51.036;6.972;2023-02-28T00:43:39;102111.03;;;3.48;74.84
11710;BME280;5911;51.036;6.972;2023-02-28T00:46:07;102107.59;;;3.46;74.69
11710;BME280;5911;51.036;6.972;2023-02-28T00:48:35;102106.63;;;3.50;73.71
11710;BME280;5911;51.036;6.972;2023-02-28T00:51:04;102088.84;;;3.34;73.85
11710;BME280;5911;51.036;6.972;2023-02-28T00:53:32;102118.03;;;3.46;73.28
11710;BME280;5911;51.036;6.972;2023-02-28T00:56:02;102084.47;;;3.34;73.30
11710;BME280;5911;51.036;6.972;2023-02-28T00:58:31;102106.78;;;3.44;73.23
11710;BME280;5911;51.036;6.972;2023-02-28T01:00:59;102108.59;;;3.42;73.89
11710;BME280;5911;51.036;6.972;2023-02-28T01:03:27;102109.59;;;3.37;75.01
11710;BME280;5911;51.036;6.972;2023-02-28T01:05:55;102109.72;;;3.34;75.36
11710;BME280;5911;51.036;6.972;2023-02-28T01:08:23;102106.31;;;3.30;75.65
11710;BME280;5911;51.036;6.972;2023-02-28T01:10:52;102091.66;;;3.26;75.77
11710;BME280;5911;51.036;6.972;2023-02-28T01:13:22;102098.41;;;3.33;74.52
11710;BME280;5911;51.036;6.972;2023-02-28T01:15:54;102103.63;;;3.33;76.07
11710;BME280;5911;51.036;6.972;2023-02-28T01:18:23;102090.91;;;3.21;77.19
11710;BME280;5911;51.036;6.972;2023-02-28T01:20:52;102105.50;;;3.28;75.83
11710;BME280;5911;51.036;6.972;2023-02-28T01:23:20;102109.00;;;3.27;76.59
11710;BME280;5911;51.036;6.972;2023-02-28T01:25:49;102081.81;;;3.05;76.50
11710;BME280;5911;51.036;6.972;2023-02-28T01:28:17;102107.56;;;3.17;75.66
11710;BME280;5911;51.036;6.972;2023-02-28T01:30:48;102108.50;;;3.14;76.13
11710;BME280;5911;51.036;6.972;2023-02-28T01:33:17;102108.38;;;3.19;75.76
11710;BME280;5911;51.036;6.972;2023-02-28T01:35:44;102106.63;;;3.20;76.28
11710;BME280;5911;51.036;6.972;2023-02-28T01:38:12;102104.06;;;3.18;76.74
11710;BME280;5911;51.036;6.972;2023-02-28T01:40:48;102103.94;;;3.21;75.88
11710;BME280;5911;51.036;6.972;2023-02-28T01:43:20;102110.88;;;3.22;74.54
11710;BME280;5911;51.036;6.972;2023-02-28T01:45:50;102099.59;;;3.22;74.17
11710;BME280;5911;51.036;6.972;2023-02-28T01:48:20;102105.75;;;3.19;74.84
11710;BME280;5911;51.036;6.972;2023-02-28T01:50:49;102097.13;;;3.17;76.78
11710;BME280;5911;51.036;6.972;2023-02-28T01:53:31;102086.78;;;3.14;75.69
11710;BME280;5911;51.036;6.972;2023-02-28T01:55:59;102089.25;;;3.18;76.62
11710;BME280;5911;51.036;6.972;2023-02-28T01:58:28;102086.00;;;3.10;77.98
11710;BME280;5911;51.036;6.972;2023-02-28T02:00:57;102091.13;;;3.13;77.86
11710;BME280;5911;51.036;6.972;2023-02-28T02:03:25;102087.59;;;3.16;77.27
11710;BME280;5911;51.036;6.972;2023-02-28T02:05:53;102091.94;;;3.15;78.20
11710;BME280;5911;51.036;6.972;2023-02-28T02:08:23;102090.19;;;3.16;78.74
11710;BME280;5911;51.036;6.972;2023-02-28T02:10:54;102082.38;;;3.16;78.64
11710;BME280;5911;51.036;6.972;2023-02-28T02:13:39;102073.69;;;3.15;79.07
11710;BME280;5911;51.036;6.972;2023-02-28T02:16:20;102084.06;;;3.18;80.19
11710;BME280;5911;51.036;6.972;2023-02-28T02:18:53;102072.91;;;3.12;79.48
11710;BME280;5911;51.036;6.972;2023-02-28T02:21:52;102077.28;;;3.11;79.51
11710;BME280;5911;51.036;6.972;2023-02-28T02:24:49;102051.56;;;2.99;80.70
11710;BME280;5911;51.036;6.972;2023-02-28T02:27:32;102066.06;;;3.08;80.46
11710;BME280;5911;51.036;6.972;2023-02-28T02:30:40;102051.44;;;3.04;78.67
11710;BME280;5911;51.036;6.972;2023-02-28T02:33:29;102064.38;;;3.07;77.66
11710;BME280;5911;51.036;6.972;2023-02-28T02:36:11;102066.06;;;3.08;78.42
11710;BME280;5911;51.036;6.972;2023-02-28T02:38:47;102015.50;;;2.84;78.60
11710;BME280;5911;51.036;6.972;2023-02-28T02:41:23;102069.53;;;3.08;77.94
11710;BME280;5911;51.036;6.972;2023-02-28T02:43:58;102065.22;;;3.07;78.05
11710;BME280;5911;51.036;6.972;2023-02-28T02:46:33;102067.78;;;3.09;77.20
11710;BME280;5911;51.036;6.972;2023-02-28T02:49:06;102057.34;;;3.09;77.50
11710;BME280;5911;51.036;6.972;2023-02-28T02:51:38;102046.53;;;2.92;77.93
11710;BME280;5911;51.036;6.972;2023-02-28T02:54:11;102062.66;;;3.06;78.88
11710;BME280;5911;51.036;6.972;2023-02-28T02:56:44;102057.44;;;3.06;78.08
11710;BME280;5911;51.036;6.972;2023-02-28T02:59:15;102040.44;;;2.93;78.67
11710;BME280;5911;51.036;6.972;2023-02-28T03:01:50;102062.91;;;2.97;78.78
11710;BME280;5911;51.036;6.972;2023-02-28T03:04:20;102052.75;;;2.88;77.66
11710;BME280;5911;51.036;6.972;2023-02-28T03:06:51;102064.13;;;2.83;78.59
11710;BME280;5911;51.036;6.972;2023-02-28T03:09:21;102064.22;;;2.80;79.91
11710;BME280;5911;51.036;6.972;2023-02-28T03:11:51;102062.69;;;2.73;78.95
11710;BME280;5911;51.036;6.972;2023-02-28T03:14:25;102051.44;;;2.71;79.79
11710;BME280;5911;51.036;6.972;2023-02-28T03:17:15;102055.91;;;2.66;79.54
11710;BME280;5911;51.036;6.972;2023-02-28T03:20:10;102058.44;;;2.69;79.18
11710;BME280;5911;51.036;6.972;2023-02-28T03:23:03;102054.16;;;2.67;79.07
11710;BME280;5911;51.036;6.972;2023-02-28T03:25:39;102029.53;;;2.44;79.35
11710;BME280;5911;51.036;6.972;2023-02-28T03:28:16;102046.63;;;2.56;80.18
11710;BME280;5911;51.036;6.972;2023-02-28T03:30:48;102052.72;;;2.55;80.03
11710;BME280;5911;51.036;6.972;2023-02-28T03:33:22;102052.81;;;2.51;79.98
11710;BME280;5911;51.036;6.972;2023-02-28T03:35:57;102019.56;;;2.28;80.13
11710;BME280;5911;51.036;6.972;2023-02-28T03:38:32;102024.84;;;2.25;80.71
11710;BME280;5911;51.036;6.972;2023-02-28T03:41:05;102051.19;;;2.46;80.05
11710;BME280;5911;51.036;6.972;2023-02-28T03:43:36;102049.38;;;2.50;79.15
11710;BME280;5911;51.036;6.972;2023-02-28T03:46:15;102039.31;;;2.36;80.80
11710;BME280;5911;51.036;6.972;2023-02-28T03:48:52;102055.72;;;2.40;81.23
11710;BME280;5911;51.036;6.972;2023-02-28T03:51:22;102057.41;;;2.41;81.36
11710;BME280;5911;51.036;6.972;2023-02-28T03:53:56;102057.50;;;2.38;81.38
11710;BME280;5911;51.036;6.972;2023-02-28T03:56:30;102061.81;;;2.39;81.56
11710;BME280;5911;51.036;6.972;2023-02-28T03:59:02;102062.69;;;2.38;81.87
11710;BME280;5911;51.036;6.972;2023-02-28T04:01:35;102030.25;;;2.16;81.31
11710;BME280;5911;51.036;6.972;2023-02-28T04:04:08;102068.03;;;2.32;81.75
11710;BME280;5911;51.036;6.972;2023-02-28T04:06:36;102062.94;;;2.29;81.78
11710;BME280;5911;51.036;6.972;2023-02-28T04:09:09;102066.31;;;2.31;81.79
11710;BME280;5911;51.036;6.972;2023-02-28T04:11:41;102057.59;;;2.33;82.54
11710;BME280;5911;51.036;6.972;2023-02-28T04:14:10;102061.09;;;2.32;82.66
11710;BME280;5911;51.036;6.972;2023-02-28T04:16:40;102061.91;;;2.34;82.56
11710;BME280;5911;51.036;6.972;2023-02-28T04:19:09;102049.94;;;2.27;82.71
11710;BME280;5911;51.036;6.972;2023-02-28T04:21:40;102064.41;;;2.39;82.98
11710;BME280;5911;51.036;6.972;2023-02-28T04:24:11;102066.13;;;2.40;82.49
11710;BME280;5911;51.036;6.972;2023-02-28T04:26:47;102057.56;;;2.35;83.09
11710;BME280;5911;51.036;6.972;2023-02-28T04:29:21;102066.19;;;2.37;82.02
11710;BME280;5911;51.036;6.972;2023-02-28T04:31:50;102064.34;;;2.42;81.61
11710;BME280;5911;51.036;6.972;2023-02-28T04:34:19;102069.53;;;2.42;80.87
11710;BME280;5911;51.036;6.972;2023-02-28T04:36:48;102060.97;;;2.37;81.41
11710;BME280;5911;51.036;6.972;2023-02-28T04:39:37;102071.31;;;2.40;81.17
11710;BME280;5911;51.036;6.972;2023-02-28T04:42:05;102065.38;;;2.35;81.59
11710;BME280;5911;51.036;6.972;2023-02-28T04:44:33;102069.53;;;2.42;81.05
11710;BME280;5911;51.036;6.972;2023-02-28T04:47:01;102074.66;;;2.45;79.44
11710;BME280;5911;51.036;6.972;2023-02-28T04:49:29;102059.34;;;2.33;78.91
11710;BME280;5911;51.036;6.972;2023-02-28T04:51:56;102077.25;;;2.45;78.11
11710;BME280;5911;51.036;6.972;2023-02-28T04:54:24;102037.03;;;2.23;77.37
11710;BME280;5911;51.036;6.972;2023-02-28T04:56:54;102070.38;;;2.44;77.92
11710;BME280;5911;51.036;6.972;2023-02-28T04:59:22;102081.56;;;2.46;76.65
11710;BME280;5911;51.036;6.972;2023-02-28T05:01:49;102080.63;;;2.50;76.35
11710;BME280;5911;51.036;6.972;2023-02-28T05:04:17;102074.53;;;2.51;76.76
11710;BME280;5911;51.036;6.972;2023-02-28T05:06:45;102077.09;;;2.53;74.47
11710;BME280;5911;51.036;6.972;2023-02-28T05:09:13;102052.34;;;2.35;74.91
11710;BME280;5911;51.036;6.972;2023-02-28T05:11:41;102086.66;;;2.52;75.52
11710;BME280;5911;51.036;6.972;2023-02-28T05:14:13;102083.22;;;2.50;76.55
11710;BME280;5911;51.036;6.972;2023-02-28T05:16:41;102067.97;;;2.35;75.76
11710;BME280;5911;51.036;6.972;2023-02-28T05:19:16;101967.03;;;1.76;74.92
11710;BME280;5911;51.036;6.972;2023-02-28T05:21:50;102082.44;;;2.46;74.43
11710;BME280;5911;51.036;6.972;2023-02-28T05:24:19;102082.22;;;2.56;73.39
11710;BME280;5911;51.036;6.972;2023-02-28T05:26:50;102091.53;;;2.64;73.65
11710;BME280;5911;51.036;6.972;2023-02-28T05:29:20;102086.34;;;2.64;71.84
11710;BME280;5911;51.036;6.972;2023-02-28T05:31:48;102093.25;;;2.65;71.93
11710;BME280;5911;51.036;6.972;2023-02-28T05:34:16;102079.59;;;2.57;72.12
11710;BME280;5911;51.036;6.972;2023-02-28T05:36:53;102000.97;;;2.07;71.50
11710;BME280;5911;51.036;6.972;2023-02-28T05:39:48;102101.97;;;2.64;72.23
11710;BME280;5911;51.036;6.972;2023-02-28T05:42:16;102098.47;;;2.65;72.89
11710;BME280;5911;51.036;6.972;2023-02-28T05:44:45;102097.59;;;2.65;71.48
11710;BME280;5911;51.036;6.972;2023-02-28T05:47:13;102102.81;;;2.65;71.70
11710;BME280;5911;51.036;6.972;2023-02-28T05:49:42;102105.38;;;2.66;70.06
11710;BME280;5911;51.036;6.972;2023-02-28T05:52:10;102095.13;;;2.60;70.00
11710;BME280;5911;51.036;6.972;2023-02-28T05:54:37;102101.91;;;2.67;70.33
11710;BME280;5911;51.036;6.972;2023-02-28T05:57:07;102101.94;;;2.66;70.17
11710;BME280;5911;51.036;6.972;2023-02-28T05:59:51;102105.34;;;2.68;69.91
11710;BME280;5911;51.036;6.972;2023-02-28T06:02:19;102096.69;;;2.67;68.96
11710;BME280;5911;51.036;6.972;2023-02-28T06:04:46;102082.22;;;2.56;70.16
11710;BME280;5911;51.036;6.972;2023-02-28T06:07:14;102090.81;;;2.59;69.56
11710;BME280;5911;51.036;6.972;2023-02-28T06:09:44;102101.91;;;2.67;68.87
11710;BME280;5911;51.036;6.972;2023-02-28T06:12:11;102105.47;;;2.63;68.17
11710;BME280;5911;51.036;6.972;2023-02-28T06:14:39;102099.34;;;2.64;68.80
11710;BME280;5911;51.036;6.972;2023-02-28T06:17:09;102108.09;;;2.62;69.39
11710;BME280;5911;51.036;6.972;2023-02-28T06:19:37;102107.22;;;2.63;69.31
11710;BME280;5911;51.036;6.972;2023-02-28T06:22:07;102112.41;;;2.63;68.71
11710;BME280;5911;51.036;6.972;2023-02-28T06:24:35;102113.25;;;2.65;69.42
11710;BME280;5911;51.036;6.972;2023-02-28T06:27:03;102117.66;;;2.61;68.72
11710;BME280;5911;51.036;6.972;2023-02-28T06:29:32;102114.25;;;2.59;70.14
11710;BME280;5911;51.036;6.972;2023-02-28T06:32:00;102122.97;;;2.58;69.75
11710;BME280;5911;51.036;6.972;2023-02-28T06:34:30;102122.97;;;2.58;69.42
11710;BME280;5911;51.036;6.972;2023-02-28T06:36:57;102122.97;;;2.58;69.18
11710;BME280;5911;51.036;6.972;2023-02-28T06:39:28;102132.44;;;2.61;70.03
11710;BME280;5911;51.036;6.972;2023-02-28T06:41:56;102128.09;;;2.61;69.35
11710;BME280;5911;51.036;6.972;2023-02-28T06:44:24;102128.16;;;2.60;68.25
11710;BME280;5911;51.036;6.972;2023-02-28T06:46:52;102134.94;;;2.65;68.16
11710;BME280;5911;51.036;6.972;2023-02-28T06:49:20;102104.16;;;2.45;69.32
11710;BME280;5911;51.036;6.972;2023-02-28T06:51:49;102143.56;;;2.67;68.18
11710;BME280;5911;51.036;6.972;2023-02-28T06:54:17;102145.34;;;2.65;66.89
11710;BME280;5911;51.036;6.972;2023-02-28T06:56:44;102152.22;;;2.69;67.96
11710;BME280;5911;51.036;6.972;2023-02-28T06:59:13;102156.50;;;2.72;67.21
11710;BME280;5911;51.036;6.972;2023-02-28T07:01:41;102154.66;;;2.75;66.51
11710;BME280;5911;51.036;6.972;2023-02-28T07:04:09;102153.03;;;2.71;66.26
11710;BME280;5911;51.036;6.972;2023-02-28T07:06:37;102158.97;;;2.76;66.03
11710;BME280;5911;51.036;6.972;2023-02-28T07:09:06;102158.97;;;2.76;67.03
11710;BME280;5911;51.036;6.972;2023-02-28T07:11:34;102163.28;;;2.77;65.89
11710;BME280;5911;51.036;6.972;2023-02-28T07:14:02;102155.41;;;2.80;66.18
11710;BME280;5911;51.036;6.972;2023-02-28T07:16:30;102160.59;;;2.80;65.74
11710;BME280;5911;51.036;6.972;2023-02-28T07:18:58;102165.78;;;2.82;64.98
11710;BME280;5911;51.036;6.972;2023-02-28T07:21:26;102129.72;;;2.65;65.38
11710;BME280;5911;51.036;6.972;2023-02-28T07:23:55;102164.81;;;2.86;65.36
11710;BME280;5911;51.036;6.972;2023-02-28T07:26:25;102164.78;;;2.88;65.31
11710;BME280;5911;51.036;6.972;2023-02-28T07:28:53;102163.91;;;2.89;64.24
11710;BME280;5911;51.036;6.972;2023-02-28T07:31:20;102168.16;;;2.91;62.77
11710;BME280;5911;51.036;6.972;2023-02-28T07:33:52;102168.94;;;2.95;63.17
11710;BME280;5911;51.036;6.972;2023-02-28T07:36:20;102165.44;;;2.96;62.01
11710;BME280;5911;51.036;6.972;2023-02-28T07:38:48;102170.59;;;2.99;62.50
11710;BME280;5911;51.036;6.972;2023-02-28T07:41:18;102172.13;;;3.06;62.94
11710;BME280;5911;51.036;6.972;2023-02-28T07:43:48;102173.75;;;3.10;62.25
11710;BME280;5911;51.036;6.972;2023-02-28T07:46:17;102168.56;;;3.10;63.43
11710;BME280;5911;51.036;6.972;2023-02-28T07:48:47;102173.75;;;3.10;60.07
11710;BME280;5911;51.036;6.972;2023-02-28T07:51:15;102173.63;;;3.16;61.87
11710;BME280;5911;51.036;6.972;2023-02-28T07:53:43;102174.34;;;3.21;59.99
11710;BME280;5911;51.036;6.972;2023-02-28T07:56:11;102173.38;;;3.25;61.53
11710;BME280;5911;51.036;6.972;2023-02-28T07:58:39;102176.75;;;3.29;60.18
11710;BME280;5911;51.036;6.972;2023-02-28T08:01:10;102175.81;;;3.31;58.41
11710;BME280;5911;51.036;6.972;2023-02-28T08:03:38;102180.97;;;3.34;58.33
11710;BME280;5911;51.036;6.972;2023-02-28T08:06:09;102179.22;;;3.35;58.21
11710;BME280;5911;51.036;6.972;2023-02-28T08:08:42;102178.19;;;3.40;58.42
11710;BME280;5911;51.036;6.972;2023-02-28T08:11:10;102165.13;;;3.40;59.36
11710;BME280;5911;51.036;6.972;2023-02-28T08:13:38;102183.06;;;3.52;57.88
11710;BME280;5911;51.036;6.972;2023-02-28T08:16:06;102165.03;;;3.45;57.96
11710;BME280;5911;51.036;6.972;2023-02-28T08:18:36;102187.22;;;3.60;57.66
11710;BME280;5911;51.036;6.972;2023-02-28T08:21:07;102188.09;;;3.60;57.20
11710;BME280;5911;51.036;6.972;2023-02-28T08:23:35;102186.34;;;3.61;57.67
11710;BME280;5911;51.036;6.972;2023-02-28T08:26:04;102174.09;;;3.63;56.52
11710;BME280;5911;51.036;6.972;2023-02-28T08:28:31;102193.72;;;3.76;54.88
11710;BME280;5911;51.036;6.972;2023-02-28T08:30:59;102192.75;;;3.80;54.77
11710;BME280;5911;51.036;6.972;2023-02-28T08:33:27;102193.38;;;3.88;57.32
11710;BME280;5911;51.036;6.972;2023-02-28T08:35:57;102197.66;;;3.91;54.66
11710;BME280;5911;51.036;6.972;2023-02-28T08:38:24;102185.56;;;3.88;53.34
11710;BME280;5911;51.036;6.972;2023-02-28T08:40:57;102200.03;;;3.98;54.10
11710;BME280;5911;51.036;6.972;2023-02-28T08:43:26;102199.06;;;4.02;53.38
11710;BME280;5911;51.036;6.972;2023-02-28T08:45:55;102191.16;;;4.05;52.49
11710;BME280;5911;51.036;6.972;2023-02-28T08:48:24;102197.19;;;4.07;52.11
11710;BME280;5911;51.036;6.972;2023-02-28T08:50:57;102193.75;;;4.05;53.14
11710;BME280;5911;51.036;6.972;2023-02-28T08:53:33;102198.00;;;4.09;52.23
11710;BME280;5911;51.036;6.972;2023-02-28T08:56:03;102194.63;;;4.06;52.48
11710;BME280;5911;51.036;6.972;2023-02-28T08:58:32;102207.44;;;4.13;51.80
11710;BME280;5911;51.036;6.972;2023-02-28T09:01:07;102170.47;;;3.98;51.79
11710;BME280;5911;51.036;6.972;2023-02-28T09:03:36;102198.44;;;4.23;51.99
11710;BME280;5911;51.036;6.972;2023-02-28T09:06:05;102196.69;;;4.24;52.46
11710;BME280;5911;51.036;6.972;2023-02-28T09:08:33;102191.22;;;4.32;52.04
11710;BME280;5911;51.036;6.972;2023-02-28T09:11:04;102200.81;;;4.31;51.81
11710;BME280;5911;51.036;6.972;2023-02-28T09:13:35;102199.06;;;4.32;50.34
11710;BME280;5911;51.036;6.972;2023-02-28T09:16:05;102199.94;;;4.31;49.19
11710;BME280;5911;51.036;6.972;2023-02-28T09:18:34;102191.91;;;4.38;50.11
11710;BME280;5911;51.036;6.972;2023-02-28T09:21:04;102185.81;;;4.38;50.72
11710;BME280;5911;51.036;6.972;2023-02-28T09:23:32;102170.63;;;4.50;53.68
11710;BME280;5911;51.036;6.972;2023-02-28T09:26:00;102189.50;;;4.58;52.65
11710;BME280;5911;51.036;6.972;2023-02-28T09:28:28;102181.44;;;4.66;52.56
11710;BME280;5911;51.036;6.972;2023-02-28T09:30:56;102175.75;;;4.53;49.55
11710;BME280;5911;51.036;6.972;2023-02-28T09:33:25;102193.69;;;4.64;49.14
11710;BME280;5911;51.036;6.972;2023-02-28T09:35:58;102184.94;;;4.65;49.21
11710;BME280;5911;51.036;6.972;2023-02-28T09:38:28;102183.16;;;4.67;48.20
11710;BME280;5911;51.036;6.972;2023-02-28T09:40:58;102181.25;;;4.72;49.53
11710;BME280;5911;51.036;6.972;2023-02-28T09:43:30;102154.72;;;4.58;49.77
11710;BME280;5911;51.036;6.972;2023-02-28T09:46:08;102176.97;;;4.96;53.37
11710;BME280;5911;51.036;6.972;2023-02-28T09:48:42;102179.44;;;5.01;50.89
11710;BME280;5911;51.036;6.972;2023-02-28T09:51:20;102175.13;;;5.24;52.67
11710;BME280;5911;51.036;6.972;2023-02-28T09:53:53;102178.44;;;5.29;51.34
11710;BME280;5911;51.036;6.972;2023-02-28T09:56:31;102176.47;;;5.36;48.36
11710;BME280;5911;51.036;6.972;2023-02-28T09:59:02;102179.94;;;5.61;48.39
11710;BME280;5911;51.036;6.972;2023-02-28T10:01:37;102172.56;;;5.96;49.58
11710;BME280;5911;51.036;6.972;2023-02-28T10:04:12;102170.91;;;6.17;49.75
11710;BME280;5911;51.036;6.972;2023-02-28T10:06:47;102180.66;;;6.37;47.83
11710;BME280;5911;51.036;6.972;2023-02-28T10:09:19;102165.56;;;6.42;47.22
11710;BME280;5911;51.036;6.972;2023-02-28T10:11:52;102167.13;;;6.69;48.63
11710;BME280;5911;51.036;6.972;2023-02-28T10:14:24;102181.97;;;6.90;46.92
11710;BME280;5911;51.036;6.972;2023-02-28T10:16:56;102168.06;;;6.88;44.84
11710;BME280;5911;51.036;6.972;2023-02-28T10:19:29;102171.03;;;7.01;45.34
11710;BME280;5911;51.036;6.972;2023-02-28T10:22:03;102142.69;;;7.09;45.43
11710;BME280;5911;51.036;6.972;2023-02-28T10:24:42;102170.97;;;7.43;45.90
11710;BME280;5911;51.036;6.972;2023-02-28T10:27:15;102179.09;;;7.57;44.75
11710;BME280;5911;51.036;6.972;2023-02-28T10:29:45;102172.25;;;7.73;46.58
11710;BME280;5911;51.036;6.972;2023-02-28T10:32:15;102174.28;;;7.67;43.12
11710;BME280;5911;51.036;6.972;2023-02-28T10:34:53;102154.25;;;7.64;44.85
11710;BME280;5911;51.036;6.972;2023-02-28T10:37:28;102185.13;;;7.98;44.52
11710;BME280;5911;51.036;6.972;2023-02-28T10:39:59;102180.16;;;8.11;44.74
11710;BME280;5911;51.036;6.972;2023-02-28T10:42:29;102176.81;;;8.26;41.67
11710;BME280;5911;51.036;6.972;2023-02-28T10:45:13;102164.31;;;8.31;43.36
11710;BME280;5911;51.036;6.972;2023-02-28T10:47:51;102174.78;;;8.52;42.56
11710;BME280;5911;51.036;6.972;2023-02-28T10:50:28;102166.75;;;8.72;43.45
11710;BME280;5911;51.036;6.972;2023-02-28T10:53:07;102150.81;;;8.75;43.79
11710;BME280;5911;51.036;6.972;2023-02-28T10:55:37;102149.25;;;8.16;43.16
11710;BME280;5911;51.036;6.972;2023-02-28T10:58:20;102158.38;;;8.09;40.62
11710;BME280;5911;51.036;6.972;2023-02-28T11:00:48;102161.25;;;8.59;41.75
11710;BME280;5911;51.036;6.972;2023-02-28T11:03:31;102150.69;;;8.95;41.84
11710;BME280;5911;51.036;6.972;2023-02-28T11:06:05;102147.72;;;9.36;42.25
11710;BME280;5911;51.036;6.972;2023-02-28T11:08:34;102151.72;;;9.60;39.34
11710;BME280;5911;51.036;6.972;2023-02-28T11:11:12;102139.69;;;9.87;41.57
11710;BME280;5911;51.036;6.972;2023-02-28T11:13:40;102155.22;;;10.25;40.34
11710;BME280;5911;51.036;6.972;2023-02-28T11:16:10;102141.44;;;10.51;40.88
11710;BME280;5911;51.036;6.972;2023-02-28T11:18:42;102146.00;;;10.64;38.94
11710;BME280;5911;51.036;6.972;2023-02-28T11:21:17;102129.13;;;10.82;40.08
11710;BME280;5911;51.036;6.972;2023-02-28T11:23:47;102145.81;;;11.12;40.33
11710;BME280;5911;51.036;6.972;2023-02-28T11:26:35;102128.81;;;11.16;38.59
11710;BME280;5911;51.036;6.972;2023-02-28T11:29:18;102144.41;;;11.35;39.05
11710;BME280;5911;51.036;6.972;2023-02-28T11:32:07;102122.06;;;10.21;38.23
11710;BME280;5911;51.036;6.972;2023-02-28T11:34:38;102143.84;;;9.76;41.46
11710;BME280;5911;51.036;6.972;2023-02-28T11:37:12;102137.47;;;9.80;40.94
11710;BME280;5911;51.036;6.972;2023-02-28T11:39:41;102131.53;;;9.76;41.17
11710;BME280;5911;51.036;6.972;2023-02-28T11:42:34;102148.41;;;10.52;39.31
11710;BME280;5911;51.036;6.972;2023-02-28T11:45:23;102138.31;;;10.75;39.41
11710;BME280;5911;51.036;6.972;2023-02-28T11:47:58;102151.59;;;11.03;38.58
11710;BME280;5911;51.036;6.972;2023-02-28T11:50:42;102137.88;;;11.12;39.32
11710;BME280;5911;51.036;6.972;2023-02-28T11:53:19;102132.22;;;11.33;40.50
11710;BME280;5911;51.036;6.972;2023-02-28T11:55:54;102143.19;;;11.41;38.39
11710;BME280;5911;51.036;6.972;2023-02-28T11:58:35;102139.44;;;11.45;39.05
11710;BME280;5911;51.036;6.972;2023-02-28T12:04:21;102150.53;;;10.91;37.71
11710;BME280;5911;51.036;6.972;2023-02-28T12:06:55;102138.69;;;10.69;38.61
11710;BME280;5911;51.036;6.972;2023-02-28T12:09:38;102130.78;;;10.69;39.13
11710;BME280;5911;51.036;6.972;2023-02-28T12:12:15;102141.22;;;10.70;40.06
11710;BME280;5911;51.036;6.972;2023-02-28T12:15:05;102143.13;;;10.98;37.42
11710;BME280;5911;51.036;6.972;2023-02-28T12:17:50;102130.03;;;11.11;37.79
11710;BME280;5911;51.036;6.972;2023-02-28T12:20:28;102136.19;;;10.81;37.63
11710;BME280;5911;51.036;6.972;2023-02-28T12:23:16;102127.41;;;10.81;37.62
11710;BME280;5911;51.036;6.972;2023-02-28T12:26:02;102107.78;;;10.85;39.28
11710;BME280;5911;51.036;6.972;2023-02-28T12:28:35;102069.50;;;10.64;38.49
11710;BME280;5911;51.036;6.972;2023-02-28T12:31:14;102114.94;;;10.69;38.14
11710;BME280;5911;51.036;6.972;2023-02-28T12:33:47;102112.81;;;10.89;38.33
11710;BME280;5911;51.036;6.972;2023-02-28T12:36:19;102113.63;;;10.76;40.62
11710;BME280;5911;51.036;6.972;2023-02-28T12:38:50;102105.38;;;10.36;40.31
11710;BME280;5911;51.036;6.972;2023-02-28T12:41:29;102096.09;;;10.75;43.14
11710;BME280;5911;51.036;6.972;2023-02-28T12:44:03;102087.25;;;10.90;40.00
11710;BME280;5911;51.036;6.972;2023-02-28T12:46:38;102101.06;;;10.95;38.94
11710;BME280;5911;51.036;6.972;2023-02-28T12:49:11;102095.50;;;11.00;38.33
11710;BME280;5911;51.036;6.972;2023-02-28T12:51:40;102066.84;;;10.64;38.25
11710;BME280;5911;51.036;6.972;2023-02-28T12:54:14;102081.06;;;10.61;39.55
11710;BME280;5911;51.036;6.972;2023-02-28T12:56:48;102067.81;;;10.77;39.31
11710;BME280;5911;51.036;6.972;2023-02-28T12:59:25;102072.50;;;11.16;39.48
11710;BME280;5911;51.036;6.972;2023-02-28T13:02:17;102069.97;;;11.14;39.31
11710;BME280;5911;51.036;6.972;2023-02-28T13:05:15;102076.31;;;10.82;39.27
11710;BME280;5911;51.036;6.972;2023-02-28T13:10:54;102070.97;;;10.53;38.08
11710;BME280;5911;51.036;6.972;2023-02-28T13:13:23;102069.78;;;10.43;37.77
11710;BME280;5911;51.036;6.972;2023-02-28T13:16:01;102059.56;;;10.53;37.82
11710;BME280;5911;51.036;6.972;2023-02-28T13:18:34;102052.72;;;10.65;37.99
11710;BME280;5911;51.036;6.972;2023-02-28T13:21:06;102055.97;;;10.84;37.19
11710;BME280;5911;51.036;6.972;2023-02-28T13:23:52;102061.84;;;11.17;36.52
11710;BME280;5911;51.036;6.972;2023-02-28T13:29:31;102059.19;;;11.46;36.09
11710;BME280;5911;51.036;6.972;2023-02-28T13:32:36;102057.41;;;11.46;36.02
11710;BME280;5911;51.036;6.972;2023-02-28T13:35:35;102054.22;;;11.41;36.10
11710;BME280;5911;51.036;6.972;2023-02-28T13:38:16;102051.09;;;11.20;35.30
11710;BME280;5911;51.036;6.972;2023-02-28T13:40:44;102048.84;;;11.14;37.11
11710;BME280;5911;51.036;6.972;2023-02-28T13:43:16;102043.06;;;11.08;36.53
11710;BME280;5911;51.036;6.972;2023-02-28T13:46:11;102054.69;;;11.19;38.47
11710;BME280;5911;51.036;6.972;2023-02-28T13:48:40;102040.72;;;11.17;37.50